sensor_id;sensor_type;location;lat;lon;timestamp;temperature;humidity
8707;DHT22;4390;49.302;9.306;2023-03-14T00:01:27;9.70;98.30
8707;DHT22;4390;49.302;9.306;2023-03-14T00:03:54;9.60;98.30
8707;DHT22;4390;49.302;9.306;2023-03-14T00:06:20;9.70;98.30
8707;DHT22;4390;49.302;9.306;2023-03-14T00:08:47;9.70;98.30
8707;DHT22;4390;49.302;9.306;2023-03-14T00:11:17;9.70;98.30
8707;DHT22;4390;49.302;9.306;2023-03-14T00:13:47;9.80;98.30
8707;DHT22;4390;49.302;9.306;2023-03-14T00:16:14;9.80;98.30
8707;DHT22;4390;49.302;9.306;2023-03-14T00:18:42;9.80;98.30
8707;DHT22;4390;49.302;9.306;2023-03-14T00:21:09;9.70;98.30
8707;DHT22;4390;49.302;9.306;2023-03-14T00:23:38;9.60;98.30
8707;DHT22;4390;49.302;9.306;2023-03-14T00:26:11;9.70;98.30
8707;DHT22;4390;49.302;9.306;2023-03-14T00:28:39;9.70;98.30
8707;DHT22;4390;49.302;9.306;2023-03-14T00:31:08;9.70;98.30
8707;DHT22;4390;49.302;9.306;2023-03-14T00:33:35;9.60;98.30
8707;DHT22;4390;49.302;9.306;2023-03-14T00:36:13;9.60;98.30
8707;DHT22;4390;49.302;9.306;2023-03-14T00:38:41;9.70;98.30
8707;DHT22;4390;49.302;9.306;2023-03-14T00:41:12;9.70;98.30
8707;DHT22;4390;49.302;9.306;2023-03-14T00:43:40;9.80;98.30
8707;DHT22;4390;49.302;9.306;2023-03-14T00:46:07;9.80;98.30
8707;DHT22;4390;49.302;9.306;2023-03-14T00:48:35;9.80;98.30
8707;DHT22;4390;49.302;9.306;2023-03-14T00:51:03;9.60;98.30
8707;DHT22;4390;49.302;9.306;2023-03-14T00:53:30;9.40;98.30
8707;DHT22;4390;49.302;9.306;2023-03-14T00:56:02;9.40;98.30
8707;DHT22;4390;49.302;9.306;2023-03-14T00:58:30;9.60;98.30
8707;DHT22;4390;49.302;9.306;2023-03-14T01:00:57;9.70;98.30
8707;DHT22;4390;49.302;9.306;2023-03-14T01:03:24;9.80;98.30
8707;DHT22;4390;49.302;9.306;2023-03-14T01:05:51;9.70;98.30
8707;DHT22;4390;49.302;9.306;2023-03-14T01:08:18;9.90;98.30
8707;DHT22;4390;49.302;9.306;2023-03-14T01:10:44;9.70;98.30
8707;DHT22;4390;49.302;9.306;2023-03-14T01:13:11;9.50;98.30
8707;DHT22;4390;49.302;9.306;2023-03-14T01:15:38;9.60;98.30
8707;DHT22;4390;49.302;9.306;2023-03-14T01:18:04;9.60;98.30
8707;DHT22;4390;49.302;9.306;2023-03-14T01:20:31;9.70;98.30
8707;DHT22;4390;49.302;9.306;2023-03-14T01:22:58;9.60;98.30
8707;DHT22;4390;49.302;9.306;2023-03-14T01:25:25;9.60;98.30
8707;DHT22;4390;49.302;9.306;2023-03-14T01:27:51;9.50;98.30
8707;DHT22;4390;49.302;9.306;2023-03-14T01:30:18;9.50;98.30
8707;DHT22;4390;49.302;9.306;2023-03-14T01:32:45;9.50;98.30
8707;DHT22;4390;49.302;9.306;2023-03-14T01:35:12;9.50;98.30
8707;DHT22;4390;49.302;9.306;2023-03-14T01:37:39;9.50;98.30
8707;DHT22;4390;49.302;9.306;2023-03-14T01:40:11;9.50;98.30
8707;DHT22;4390;49.302;9.306;2023-03-14T01:42:54;9.50;98.30
8707;DHT22;4390;49.302;9.306;2023-03-14T01:51:13;9.70;98.30
8707;DHT22;4390;49.302;9.306;2023-03-14T01:53:42;9.80;98.30
8707;DHT22;4390;49.302;9.306;2023-03-14T01:56:13;10.00;98.30
8707;DHT22;4390;49.302;9.306;2023-03-14T01:58:42;10.10;98.30
8707;DHT22;4390;49.302;9.306;2023-03-14T02:01:11;9.90;98.30
8707;DHT22;4390;49.302;9.306;2023-03-14T02:03:52;9.90;98.30
8707;DHT22;4390;49.302;9.306;2023-03-14T02:06:24;9.90;98.30
8707;DHT22;4390;49.302;9.306;2023-03-14T02:08:55;9.80;98.30
8707;DHT22;4390;49.302;9.306;2023-03-14T02:11:28;9.70;98.30
8707;DHT22;4390;49.302;9.306;2023-03-14T02:14:03;9.80;98.30
8707;DHT22;4390;49.302;9.306;2023-03-14T02:16:49;9.80;98.30
8707;DHT22;4390;49.302;9.306;2023-03-14T02:19:43;9.70;98.30
8707;DHT22;4390;49.302;9.306;2023-03-14T02:22:31;9.50;98.30
8707;DHT22;4390;49.302;9.306;2023-03-14T02:25:11;9.50;98.30
8707;DHT22;4390;49.302;9.306;2023-03-14T02:27:39;9.50;98.30
8707;DHT22;4390;49.302;9.306;2023-03-14T02:30:11;9.30;98.30
8707;DHT22;4390;49.302;9.306;2023-03-14T02:32:43;9.50;98.30
8707;DHT22;4390;49.302;9.306;2023-03-14T02:35:18;9.70;98.30
8707;DHT22;4390;49.302;9.306;2023-03-14T02:37:52;9.90;98.30
8707;DHT22;4390;49.302;9.306;2023-03-14T02:40:20;9.90;98.30
8707;DHT22;4390;49.302;9.306;2023-03-14T02:42:50;9.90;98.30
8707;DHT22;4390;49.302;9.306;2023-03-14T02:47:52;9.70;98.30
8707;DHT22;4390;49.302;9.306;2023-03-14T02:50:24;9.80;98.30
8707;DHT22;4390;49.302;9.306;2023-03-14T02:52:53;9.80;98.30
8707;DHT22;4390;49.302;9.306;2023-03-14T02:55:21;9.90;98.30
8707;DHT22;4390;49.302;9.306;2023-03-14T02:57:50;10.00;98.30
8707;DHT22;4390;49.302;9.306;2023-03-14T03:00:17;10.00;98.30
8707;DHT22;4390;49.302;9.306;2023-03-14T03:02:45;10.00;98.30
8707;DHT22;4390;49.302;9.306;2023-03-14T03:05:13;10.00;98.30
8707;DHT22;4390;49.302;9.306;2023-03-14T03:07:40;10.00;98.30
8707;DHT22;4390;49.302;9.306;2023-03-14T03:10:07;10.00;98.30
8707;DHT22;4390;49.302;9.306;2023-03-14T03:12:34;9.80;98.30
8707;DHT22;4390;49.302;9.306;2023-03-14T03:15:01;9.80;98.30
8707;DHT22;4390;49.302;9.306;2023-03-14T03:17:28;9.80;98.30
8707;DHT22;4390;49.302;9.306;2023-03-14T03:19:55;9.90;98.30
8707;DHT22;4390;49.302;9.306;2023-03-14T03:22:22;10.10;98.30
8707;DHT22;4390;49.302;9.306;2023-03-14T03:24:48;10.10;98.30
8707;DHT22;4390;49.302;9.306;2023-03-14T03:27:15;10.10;98.30
8707;DHT22;4390;49.302;9.306;2023-03-14T03:29:42;10.20;98.30
8707;DHT22;4390;49.302;9.306;2023-03-14T03:32:09;10.20;98.30
8707;DHT22;4390;49.302;9.306;2023-03-14T03:34:36;10.30;98.30
8707;DHT22;4390;49.302;9.306;2023-03-14T03:37:03;10.40;98.30
8707;DHT22;4390;49.302;9.306;2023-03-14T03:39:34;10.50;98.30
8707;DHT22;4390;49.302;9.306;2023-03-14T03:42:01;10.20;98.30
8707;DHT22;4390;49.302;9.306;2023-03-14T03:44:28;10.20;98.30
8707;DHT22;4390;49.302;9.306;2023-03-14T03:46:55;10.10;98.30
8707;DHT22;4390;49.302;9.306;2023-03-14T03:49:22;9.80;98.30
8707;DHT22;4390;49.302;9.306;2023-03-14T03:51:49;9.70;98.30
8707;DHT22;4390;49.302;9.306;2023-03-14T03:54:16;9.70;98.30
8707;DHT22;4390;49.302;9.306;2023-03-14T03:56:43;9.70;98.30
8707;DHT22;4390;49.302;9.306;2023-03-14T03:59:09;9.70;98.30
8707;DHT22;4390;49.302;9.306;2023-03-14T04:01:36;9.80;98.30
8707;DHT22;4390;49.302;9.306;2023-03-14T04:04:03;9.70;98.30
8707;DHT22;4390;49.302;9.306;2023-03-14T04:06:30;9.60;98.30
8707;DHT22;4390;49.302;9.306;2023-03-14T04:08:59;9.50;98.30
8707;DHT22;4390;49.302;9.306;2023-03-14T04:11:43;9.60;98.30
8707;DHT22;4390;49.302;9.306;2023-03-14T04:14:30;9.40;98.30
8707;DHT22;4390;49.302;9.306;2023-03-14T04:17:05;9.40;98.30
8707;DHT22;4390;49.302;9.306;2023-03-14T04:19:32;9.50;98.30
8707;DHT22;4390;49.302;9.306;2023-03-14T04:21:59;9.20;98.30
8707;DHT22;4390;49.302;9.306;2023-03-14T04:24:31;9.20;98.30
8707;DHT22;4390;49.302;9.306;2023-03-14T04:26:58;9.20;98.30
8707;DHT22;4390;49.302;9.306;2023-03-14T04:29:25;9.20;98.30
8707;DHT22;4390;49.302;9.306;2023-03-14T04:31:52;9.30;98.30
8707;DHT22;4390;49.302;9.306;2023-03-14T04:34:19;9.40;98.30
8707;DHT22;4390;49.302;9.306;2023-03-14T04:36:50;9.40;98.30
8707;DHT22;4390;49.302;9.306;2023-03-14T04:39:22;9.40;98.30
8707;DHT22;4390;49.302;9.306;2023-03-14T04:42:00;9.50;98.30
8707;DHT22;4390;49.302;9.306;2023-03-14T04:44:27;9.50;98.30
8707;DHT22;4390;49.302;9.306;2023-03-14T04:46:54;9.50;98.30
8707;DHT22;4390;49.302;9.306;2023-03-14T04:49:21;9.50;98.30
8707;DHT22;4390;49.302;9.306;2023-03-14T04:51:48;9.40;98.30
8707;DHT22;4390;49.302;9.306;2023-03-14T04:54:17;9.60;98.30
8707;DHT22;4390;49.302;9.306;2023-03-14T04:56:47;9.50;98.30
8707;DHT22;4390;49.302;9.306;2023-03-14T04:59:15;9.40;98.30
8707;DHT22;4390;49.302;9.306;2023-03-14T05:01:42;9.50;98.30
8707;DHT22;4390;49.302;9.306;2023-03-14T05:04:37;9.60;98.30
8707;DHT22;4390;49.302;9.306;2023-03-14T05:07:33;9.40;98.30
8707;DHT22;4390;49.302;9.306;2023-03-14T05:10:10;9.40;98.30
8707;DHT22;4390;49.302;9.306;2023-03-14T05:12:59;9.40;98.30
8707;DHT22;4390;49.302;9.306;2023-03-14T05:15:50;9.50;98.30
8707;DHT22;4390;49.302;9.306;2023-03-14T05:18:39;9.50;98.30
8707;DHT22;4390;49.302;9.306;2023-03-14T05:21:32;9.60;98.20
8707;DHT22;4390;49.302;9.306;2023-03-14T05:24:25;9.60;97.70
8707;DHT22;4390;49.302;9.306;2023-03-14T05:27:24;9.50;97.10
8707;DHT22;4390;49.302;9.306;2023-03-14T05:30:21;9.40;97.50
8707;DHT22;4390;49.302;9.306;2023-03-14T05:33:11;9.30;97.60
8707;DHT22;4390;49.302;9.306;2023-03-14T05:35:58;9.40;97.40
8707;DHT22;4390;49.302;9.306;2023-03-14T05:38:47;9.60;96.40
8707;DHT22;4390;49.302;9.306;2023-03-14T05:41:33;9.60;96.60
8707;DHT22;4390;49.302;9.306;2023-03-14T05:44:24;9.70;96.60
8707;DHT22;4390;49.302;9.306;2023-03-14T05:47:16;9.80;96.30
8707;DHT22;4390;49.302;9.306;2023-03-14T05:50:01;9.80;95.90
8707;DHT22;4390;49.302;9.306;2023-03-14T05:52:54;9.90;95.60
8707;DHT22;4390;49.302;9.306;2023-03-14T05:55:42;9.90;94.70
8707;DHT22;4390;49.302;9.306;2023-03-14T05:58:32;9.80;95.30
8707;DHT22;4390;49.302;9.306;2023-03-14T06:01:11;9.80;95.40
8707;DHT22;4390;49.302;9.306;2023-03-14T06:03:55;9.80;95.50
8707;DHT22;4390;49.302;9.306;2023-03-14T06:06:22;9.80;95.40
8707;DHT22;4390;49.302;9.306;2023-03-14T06:08:48;10.00;95.00
8707;DHT22;4390;49.302;9.306;2023-03-14T06:11:16;9.90;95.20
8707;DHT22;4390;49.302;9.306;2023-03-14T06:13:43;9.90;95.20
8707;DHT22;4390;49.302;9.306;2023-03-14T06:16:10;9.70;95.10
8707;DHT22;4390;49.302;9.306;2023-03-14T06:18:36;9.60;96.10
8707;DHT22;4390;49.302;9.306;2023-03-14T06:21:06;9.30;96.50
8707;DHT22;4390;49.302;9.306;2023-03-14T06:23:34;9.10;97.30
8707;DHT22;4390;49.302;9.306;2023-03-14T06:26:02;9.20;97.50
8707;DHT22;4390;49.302;9.306;2023-03-14T06:28:29;9.40;97.40
8707;DHT22;4390;49.302;9.306;2023-03-14T06:30:59;9.40;96.70
8707;DHT22;4390;49.302;9.306;2023-03-14T06:33:31;9.60;96.60
8707;DHT22;4390;49.302;9.306;2023-03-14T06:35:59;9.70;96.50
8707;DHT22;4390;49.302;9.306;2023-03-14T06:38:25;9.70;96.00
8707;DHT22;4390;49.302;9.306;2023-03-14T06:40:54;9.50;95.90
8707;DHT22;4390;49.302;9.306;2023-03-14T06:43:33;9.50;96.50
8707;DHT22;4390;49.302;9.306;2023-03-14T06:46:00;9.60;96.20
8707;DHT22;4390;49.302;9.306;2023-03-14T06:48:27;9.60;96.00
8707;DHT22;4390;49.302;9.306;2023-03-14T06:50:55;9.60;95.80
8707;DHT22;4390;49.302;9.306;2023-03-14T06:53:22;9.60;96.10
8707;DHT22;4390;49.302;9.306;2023-03-14T06:55:49;9.60;96.20
8707;DHT22;4390;49.302;9.306;2023-03-14T06:58:17;9.60;96.20
8707;DHT22;4390;49.302;9.306;2023-03-14T07:00:44;9.50;96.30
8707;DHT22;4390;49.302;9.306;2023-03-14T07:03:15;9.50;96.30
8707;DHT22;4390;49.302;9.306;2023-03-14T07:05:46;9.50;96.40
8707;DHT22;4390;49.302;9.306;2023-03-14T07:08:13;9.60;96.60
8707;DHT22;4390;49.302;9.306;2023-03-14T07:10:40;9.60;96.40
8707;DHT22;4390;49.302;9.306;2023-03-14T07:13:08;9.70;95.70
8707;DHT22;4390;49.302;9.306;2023-03-14T07:15:44;9.60;96.00
8707;DHT22;4390;49.302;9.306;2023-03-14T07:18:11;9.60;96.40
8707;DHT22;4390;49.302;9.306;2023-03-14T07:20:38;9.70;96.20
8707;DHT22;4390;49.302;9.306;2023-03-14T07:23:06;9.60;96.00
8707;DHT22;4390;49.302;9.306;2023-03-14T07:25:44;9.60;96.50
8707;DHT22;4390;49.302;9.306;2023-03-14T07:28:12;9.70;96.80
8707;DHT22;4390;49.302;9.306;2023-03-14T07:30:41;9.80;96.50
8707;DHT22;4390;49.302;9.306;2023-03-14T07:33:15;9.90;96.10
8707;DHT22;4390;49.302;9.306;2023-03-14T07:35:42;10.00;95.80
8707;DHT22;4390;49.302;9.306;2023-03-14T07:38:09;10.00;95.70
8707;DHT22;4390;49.302;9.306;2023-03-14T07:40:43;10.10;95.30
8707;DHT22;4390;49.302;9.306;2023-03-14T07:43:10;9.90;95.70
8707;DHT22;4390;49.302;9.306;2023-03-14T07:45:47;9.90;95.60
8707;DHT22;4390;49.302;9.306;2023-03-14T07:48:16;9.90;95.70
8707;DHT22;4390;49.302;9.306;2023-03-14T07:50:43;9.90;95.80
8707;DHT22;4390;49.302;9.306;2023-03-14T07:53:10;9.80;96.10
8707;DHT22;4390;49.302;9.306;2023-03-14T07:55:37;10.00;96.00
8707;DHT22;4390;49.302;9.306;2023-03-14T07:58:03;10.10;95.50
8707;DHT22;4390;49.302;9.306;2023-03-14T08:00:30;10.20;95.60
8707;DHT22;4390;49.302;9.306;2023-03-14T08:02:57;10.40;94.50
8707;DHT22;4390;49.302;9.306;2023-03-14T08:05:23;10.40;94.80
8707;DHT22;4390;49.302;9.306;2023-03-14T08:07:50;10.40;94.60
8707;DHT22;4390;49.302;9.306;2023-03-14T08:10:17;10.20;95.00
8707;DHT22;4390;49.302;9.306;2023-03-14T08:12:51;10.00;95.10
8707;DHT22;4390;49.302;9.306;2023-03-14T08:15:20;9.80;95.00
8707;DHT22;4390;49.302;9.306;2023-03-14T08:17:46;9.60;95.20
8707;DHT22;4390;49.302;9.306;2023-03-14T08:20:18;9.40;96.30
8707;DHT22;4390;49.302;9.306;2023-03-14T08:22:45;9.60;96.10
8707;DHT22;4390;49.302;9.306;2023-03-14T08:25:12;9.60;95.60
8707;DHT22;4390;49.302;9.306;2023-03-14T08:27:39;9.70;95.60
8707;DHT22;4390;49.302;9.306;2023-03-14T08:30:13;9.60;95.80
8707;DHT22;4390;49.302;9.306;2023-03-14T08:32:40;9.70;96.20
8707;DHT22;4390;49.302;9.306;2023-03-14T08:35:07;9.90;95.30
8707;DHT22;4390;49.302;9.306;2023-03-14T08:37:35;10.00;94.90
8707;DHT22;4390;49.302;9.306;2023-03-14T08:40:03;10.10;94.00
8707;DHT22;4390;49.302;9.306;2023-03-14T08:42:33;10.00;94.20
8707;DHT22;4390;49.302;9.306;2023-03-14T08:45:00;10.00;94.10
8707;DHT22;4390;49.302;9.306;2023-03-14T08:47:27;10.10;93.70
8707;DHT22;4390;49.302;9.306;2023-03-14T08:49:54;10.30;93.30
8707;DHT22;4390;49.302;9.306;2023-03-14T08:52:21;10.30;93.40
8707;DHT22;4390;49.302;9.306;2023-03-14T08:54:48;10.30;93.90
8707;DHT22;4390;49.302;9.306;2023-03-14T08:57:15;10.20;94.50
8707;DHT22;4390;49.302;9.306;2023-03-14T08:59:42;10.40;94.80
8707;DHT22;4390;49.302;9.306;2023-03-14T09:02:10;10.60;93.90
8707;DHT22;4390;49.302;9.306;2023-03-14T09:04:39;10.60;93.30
8707;DHT22;4390;49.302;9.306;2023-03-14T09:07:05;10.10;93.50
8707;DHT22;4390;49.302;9.306;2023-03-14T09:09:32;9.90;94.20
8707;DHT22;4390;49.302;9.306;2023-03-14T09:11:59;9.90;94.40
8707;DHT22;4390;49.302;9.306;2023-03-14T09:14:26;9.60;94.50
8707;DHT22;4390;49.302;9.306;2023-03-14T09:16:52;9.50;95.50
8707;DHT22;4390;49.302;9.306;2023-03-14T09:19:19;9.50;95.60
8707;DHT22;4390;49.302;9.306;2023-03-14T09:21:46;9.60;95.70
8707;DHT22;4390;49.302;9.306;2023-03-14T09:24:13;9.60;95.60
8707;DHT22;4390;49.302;9.306;2023-03-14T09:26:39;9.90;94.80
8707;DHT22;4390;49.302;9.306;2023-03-14T09:29:06;9.80;94.70
8707;DHT22;4390;49.302;9.306;2023-03-14T09:31:33;9.70;94.50
8707;DHT22;4390;49.302;9.306;2023-03-14T09:34:00;9.40;94.90
8707;DHT22;4390;49.302;9.306;2023-03-14T09:36:26;9.20;95.90
8707;DHT22;4390;49.302;9.306;2023-03-14T09:38:53;9.20;96.00
8707;DHT22;4390;49.302;9.306;2023-03-14T09:41:29;9.50;95.90
8707;DHT22;4390;49.302;9.306;2023-03-14T09:46:41;9.70;95.50
8707;DHT22;4390;49.302;9.306;2023-03-14T09:49:12;9.70;95.60
8707;DHT22;4390;49.302;9.306;2023-03-14T09:51:41;9.70;95.40
8707;DHT22;4390;49.302;9.306;2023-03-14T09:54:52;9.80;95.30
8707;DHT22;4390;49.302;9.306;2023-03-14T09:57:23;9.70;95.60
8707;DHT22;4390;49.302;9.306;2023-03-14T09:59:53;9.40;96.00
8707;DHT22;4390;49.302;9.306;2023-03-14T10:02:23;9.40;96.60
8707;DHT22;4390;49.302;9.306;2023-03-14T10:04:55;9.30;96.90
8707;DHT22;4390;49.302;9.306;2023-03-14T10:07:34;9.30;97.60
8707;DHT22;4390;49.302;9.306;2023-03-14T10:10:07;9.40;97.70
8707;DHT22;4390;49.302;9.306;2023-03-14T10:12:36;9.40;97.10
8707;DHT22;4390;49.302;9.306;2023-03-14T10:15:07;9.40;97.40
8707;DHT22;4390;49.302;9.306;2023-03-14T10:17:43;9.40;97.70
8707;DHT22;4390;49.302;9.306;2023-03-14T10:20:46;9.50;97.10
8707;DHT22;4390;49.302;9.306;2023-03-14T10:25:43;9.70;97.50
8707;DHT22;4390;49.302;9.306;2023-03-14T10:28:34;9.70;97.10
8707;DHT22;4390;49.302;9.306;2023-03-14T10:31:03;9.70;97.20
8707;DHT22;4390;49.302;9.306;2023-03-14T10:33:33;9.90;97.00
8707;DHT22;4390;49.302;9.306;2023-03-14T10:38:43;9.90;96.80
8707;DHT22;4390;49.302;9.306;2023-03-14T10:41:25;9.90;97.10
8707;DHT22;4390;49.302;9.306;2023-03-14T10:44:00;9.70;96.80
8707;DHT22;4390;49.302;9.306;2023-03-14T10:46:30;9.60;97.40
8707;DHT22;4390;49.302;9.306;2023-03-14T10:52:02;9.60;97.20
8707;DHT22;4390;49.302;9.306;2023-03-14T10:54:39;9.50;97.50
8707;DHT22;4390;49.302;9.306;2023-03-14T10:57:06;9.70;98.30
8707;DHT22;4390;49.302;9.306;2023-03-14T10:59:39;9.40;98.30
8707;DHT22;4390;49.302;9.306;2023-03-14T11:05:03;9.20;98.30
8707;DHT22;4390;49.302;9.306;2023-03-14T11:07:43;9.20;98.30
8707;DHT22;4390;49.302;9.306;2023-03-14T11:10:33;9.00;98.30
8707;DHT22;4390;49.302;9.306;2023-03-14T11:13:22;9.40;98.30
8707;DHT22;4390;49.302;9.306;2023-03-14T11:21:56;9.10;98.30
8707;DHT22;4390;49.302;9.306;2023-03-14T11:27:41;8.40;98.30
8707;DHT22;4390;49.302;9.306;2023-03-14T11:30:35;8.50;98.30
8707;DHT22;4390;49.302;9.306;2023-03-14T11:33:15;8.70;98.30
8707;DHT22;4390;49.302;9.306;2023-03-14T11:35:53;8.90;98.30
8707;DHT22;4390;49.302;9.306;2023-03-14T11:41:29;8.70;98.30
8707;DHT22;4390;49.302;9.306;2023-03-14T11:43:59;8.60;98.30
8707;DHT22;4390;49.302;9.306;2023-03-14T11:46:36;8.80;98.30
8707;DHT22;4390;49.302;9.306;2023-03-14T11:51:58;9.20;98.30
8707;DHT22;4390;49.302;9.306;2023-03-14T11:54:45;8.90;98.30
8707;DHT22;4390;49.302;9.306;2023-03-14T11:57:18;8.40;98.30
8707;DHT22;4390;49.302;9.306;2023-03-14T12:02:22;8.00;98.30
8707;DHT22;4390;49.302;9.306;2023-03-14T12:10:20;8.20;98.30
8707;DHT22;4390;49.302;9.306;2023-03-14T12:12:47;8.20;98.30
8707;DHT22;4390;49.302;9.306;2023-03-14T12:15:21;8.20;98.30
8707;DHT22;4390;49.302;9.306;2023-03-14T12:17:55;8.20;98.30
8707;DHT22;4390;49.302;9.306;2023-03-14T12:20:24;8.00;98.30
8707;DHT22;4390;49.302;9.306;2023-03-14T12:23:05;7.90;98.30
8707;DHT22;4390;49.302;9.306;2023-03-14T12:25:37;7.90;98.30
8707;DHT22;4390;49.302;9.306;2023-03-14T12:28:18;8.00;98.30
8707;DHT22;4390;49.302;9.306;2023-03-14T12:30:45;8.00;98.30
8707;DHT22;4390;49.302;9.306;2023-03-14T12:35:51;7.90;98.30
8707;DHT22;4390;49.302;9.306;2023-03-14T12:39:01;7.60;98.30
8707;DHT22;4390;49.302;9.306;2023-03-14T12:41:44;7.70;98.30
8707;DHT22;4390;49.302;9.306;2023-03-14T12:49:45;7.30;98.30
8707;DHT22;4390;49.302;9.306;2023-03-14T12:52:21;7.00;98.30
8707;DHT22;4390;49.302;9.306;2023-03-14T12:55:12;7.00;98.30
8707;DHT22;4390;49.302;9.306;2023-03-14T12:57:50;7.00;98.30
8707;DHT22;4390;49.302;9.306;2023-03-14T13:00:24;6.90;98.30
8707;DHT22;4390;49.302;9.306;2023-03-14T13:05:57;7.00;98.30
8707;DHT22;4390;49.302;9.306;2023-03-14T13:08:43;6.90;98.30
8707;DHT22;4390;49.302;9.306;2023-03-14T13:11:16;7.00;98.30
8707;DHT22;4390;49.302;9.306;2023-03-14T13:13:52;6.60;98.30
8707;DHT22;4390;49.302;9.306;2023-03-14T13:16:23;6.30;98.30
8707;DHT22;4390;49.302;9.306;2023-03-14T13:19:11;6.20;98.30
8707;DHT22;4390;49.302;9.306;2023-03-14T13:21:41;6.20;98.30
8707;DHT22;4390;49.302;9.306;2023-03-14T13:24:24;6.10;98.30
8707;DHT22;4390;49.302;9.306;2023-03-14T13:26:54;6.00;98.30
8707;DHT22;4390;49.302;9.306;2023-03-14T13:29:28;5.80;98.30
8707;DHT22;4390;49.302;9.306;2023-03-14T13:32:13;5.80;98.30
8707;DHT22;4390;49.302;9.306;2023-03-14T13:34:42;5.80;98.30
8707;DHT22;4390;49.302;9.306;2023-03-14T13:37:22;5.90;98.30
8707;DHT22;4390;49.302;9.306;2023-03-14T13:39:50;5.80;98.30
8707;DHT22;4390;49.302;9.306;2023-03-14T13:42:18;5.90;98.30
8707;DHT22;4390;49.302;9.306;2023-03-14T13:44:51;6.10;98.30
8707;DHT22;4390;49.302;9.306;2023-03-14T13:47:31;6.00;97.90
8707;DHT22;4390;49.302;9.306;2023-03-14T13:49:58;6.10;97.70
8707;DHT22;4390;49.302;9.306;2023-03-14T13:52:30;6.10;98.00
8707;DHT22;4390;49.302;9.306;2023-03-14T13:55:04;6.50;97.50
8707;DHT22;4390;49.302;9.306;2023-03-14T13:57:53;6.50;96.50
8707;DHT22;4390;49.302;9.306;2023-03-14T14:00:24;6.70;96.90
8707;DHT22;4390;49.302;9.306;2023-03-14T14:02:56;6.80;96.20
8707;DHT22;4390;49.302;9.306;2023-03-14T14:05:26;7.20;95.90
8707;DHT22;4390;49.302;9.306;2023-03-14T14:07:54;7.40;95.30
8707;DHT22;4390;49.302;9.306;2023-03-14T14:10:21;7.50;94.60
8707;DHT22;4390;49.302;9.306;2023-03-14T14:13:01;7.70;93.60
8707;DHT22;4390;49.302;9.306;2023-03-14T14:15:46;7.40;92.80
8707;DHT22;4390;49.302;9.306;2023-03-14T14:18:22;7.50;93.60
8707;DHT22;4390;49.302;9.306;2023-03-14T14:20:51;7.70;91.20
8707;DHT22;4390;49.302;9.306;2023-03-14T14:23:28;7.50;89.70
8707;DHT22;4390;49.302;9.306;2023-03-14T14:26:05;7.20;89.00
8707;DHT22;4390;49.302;9.306;2023-03-14T14:28:36;7.10;88.60
8707;DHT22;4390;49.302;9.306;2023-03-14T14:31:18;7.20;87.60
8707;DHT22;4390;49.302;9.306;2023-03-14T14:34:03;7.10;86.20
8707;DHT22;4390;49.302;9.306;2023-03-14T14:36:38;6.80;86.60
8707;DHT22;4390;49.302;9.306;2023-03-14T14:39:23;7.00;87.50
8707;DHT22;4390;49.302;9.306;2023-03-14T14:41:52;7.30;86.70
8707;DHT22;4390;49.302;9.306;2023-03-14T14:44:29;7.10;86.20
8707;DHT22;4390;49.302;9.306;2023-03-14T14:46:58;6.90;85.50
8707;DHT22;4390;49.302;9.306;2023-03-14T14:49:31;6.80;86.30
8707;DHT22;4390;49.302;9.306;2023-03-14T14:52:11;6.90;85.90
8707;DHT22;4390;49.302;9.306;2023-03-14T14:54:59;6.80;86.50
8707;DHT22;4390;49.302;9.306;2023-03-14T14:57:37;6.70;86.00
8707;DHT22;4390;49.302;9.306;2023-03-14T15:00:09;6.80;85.90
8707;DHT22;4390;49.302;9.306;2023-03-14T15:02:44;6.70;86.00
8707;DHT22;4390;49.302;9.306;2023-03-14T15:05:14;6.90;85.70
8707;DHT22;4390;49.302;9.306;2023-03-14T15:07:41;7.00;85.70
8707;DHT22;4390;49.302;9.306;2023-03-14T15:10:20;7.10;86.00
8707;DHT22;4390;49.302;9.306;2023-03-14T15:12:47;7.00;85.70
8707;DHT22;4390;49.302;9.306;2023-03-14T15:15:15;6.80;85.40
8707;DHT22;4390;49.302;9.306;2023-03-14T15:17:42;6.90;85.40
8707;DHT22;4390;49.302;9.306;2023-03-14T15:20:15;6.90;85.10
8707;DHT22;4390;49.302;9.306;2023-03-14T15:22:42;7.10;85.20
8707;DHT22;4390;49.302;9.306;2023-03-14T15:25:10;7.20;84.20
8707;DHT22;4390;49.302;9.306;2023-03-14T15:27:52;7.00;83.10
8707;DHT22;4390;49.302;9.306;2023-03-14T15:30:19;7.00;83.20
8707;DHT22;4390;49.302;9.306;2023-03-14T15:32:46;7.00;83.20
8707;DHT22;4390;49.302;9.306;2023-03-14T15:35:13;7.00;82.90
8707;DHT22;4390;49.302;9.306;2023-03-14T15:37:43;7.00;82.20
8707;DHT22;4390;49.302;9.306;2023-03-14T15:40:12;7.10;81.90
8707;DHT22;4390;49.302;9.306;2023-03-14T15:42:41;7.20;82.10
8707;DHT22;4390;49.302;9.306;2023-03-14T15:45:08;7.30;81.60
8707;DHT22;4390;49.302;9.306;2023-03-14T15:47:35;7.30;81.30
8707;DHT22;4390;49.302;9.306;2023-03-14T15:50:03;7.60;81.50
8707;DHT22;4390;49.302;9.306;2023-03-14T15:52:30;7.70;81.50
8707;DHT22;4390;49.302;9.306;2023-03-14T15:54:57;7.80;80.50
8707;DHT22;4390;49.302;9.306;2023-03-14T15:57:23;7.90;80.30
8707;DHT22;4390;49.302;9.306;2023-03-14T15:59:51;8.00;80.00
8707;DHT22;4390;49.302;9.306;2023-03-14T16:02:18;8.10;79.70
8707;DHT22;4390;49.302;9.306;2023-03-14T16:04:44;8.10;79.80
8707;DHT22;4390;49.302;9.306;2023-03-14T16:07:12;8.10;79.50
8707;DHT22;4390;49.302;9.306;2023-03-14T16:09:38;8.50;80.20
8707;DHT22;4390;49.302;9.306;2023-03-14T16:12:05;8.30;78.80
8707;DHT22;4390;49.302;9.306;2023-03-14T16:14:33;8.20;78.90
8707;DHT22;4390;49.302;9.306;2023-03-14T16:17:00;7.90;79.40
8707;DHT22;4390;49.302;9.306;2023-03-14T16:19:27;7.80;79.30
8707;DHT22;4390;49.302;9.306;2023-03-14T16:21:54;7.70;79.00
8707;DHT22;4390;49.302;9.306;2023-03-14T16:24:21;7.60;79.70
8707;DHT22;4390;49.302;9.306;2023-03-14T16:26:48;7.70;80.10
8707;DHT22;4390;49.302;9.306;2023-03-14T16:29:15;7.80;79.80
8707;DHT22;4390;49.302;9.306;2023-03-14T16:31:42;7.80;79.20
8707;DHT22;4390;49.302;9.306;2023-03-14T16:34:09;7.60;80.00
8707;DHT22;4390;49.302;9.306;2023-03-14T16:36:36;7.60;79.80
8707;DHT22;4390;49.302;9.306;2023-03-14T16:39:03;7.60;79.80
8707;DHT22;4390;49.302;9.306;2023-03-14T16:41:30;7.40;80.00
8707;DHT22;4390;49.302;9.306;2023-03-14T16:43:58;7.30;79.90
8707;DHT22;4390;49.302;9.306;2023-03-14T16:46:25;7.20;80.30
8707;DHT22;4390;49.302;9.306;2023-03-14T16:48:56;7.20;80.60
8707;DHT22;4390;49.302;9.306;2023-03-14T16:51:26;7.20;80.30
8707;DHT22;4390;49.302;9.306;2023-03-14T16:53:53;7.20;80.90
8707;DHT22;4390;49.302;9.306;2023-03-14T16:56:20;7.10;81.20
8707;DHT22;4390;49.302;9.306;2023-03-14T16:58:48;7.30;80.90
8707;DHT22;4390;49.302;9.306;2023-03-14T17:01:16;7.30;80.50
8707;DHT22;4390;49.302;9.306;2023-03-14T17:03:46;7.50;80.60
8707;DHT22;4390;49.302;9.306;2023-03-14T17:06:15;7.70;80.20
8707;DHT22;4390;49.302;9.306;2023-03-14T17:08:42;7.60;80.40
8707;DHT22;4390;49.302;9.306;2023-03-14T17:11:09;7.50;81.30
8707;DHT22;4390;49.302;9.306;2023-03-14T17:13:37;7.40;81.90
8707;DHT22;4390;49.302;9.306;2023-03-14T17:16:04;7.20;82.00
8707;DHT22;4390;49.302;9.306;2023-03-14T17:18:31;7.10;82.60
8707;DHT22;4390;49.302;9.306;2023-03-14T17:20:58;7.20;82.80
8707;DHT22;4390;49.302;9.306;2023-03-14T17:23:27;7.20;82.60
8707;DHT22;4390;49.302;9.306;2023-03-14T17:25:54;7.20;83.00
8707;DHT22;4390;49.302;9.306;2023-03-14T17:28:23;7.20;82.30
8707;DHT22;4390;49.302;9.306;2023-03-14T17:31:03;7.00;82.50
8707;DHT22;4390;49.302;9.306;2023-03-14T17:33:30;6.90;82.80
8707;DHT22;4390;49.302;9.306;2023-03-14T17:35:57;6.90;82.90
8707;DHT22;4390;49.302;9.306;2023-03-14T17:38:24;7.00;83.10
8707;DHT22;4390;49.302;9.306;2023-03-14T17:40:52;7.10;82.60
8707;DHT22;4390;49.302;9.306;2023-03-14T17:43:19;7.10;83.00